sensor_id;sensor_type;location;lat;lon;timestamp;pressure;altitude;pressure_sealevel;temperature;humidity
77311;BME280;66371;52.714;5.074;2023-08-30T00:01:12;100907.00;;;12.50;100.00
77311;BME280;66371;52.714;5.074;2023-08-30T00:03:37;100914.19;;;12.50;100.00
77311;BME280;66371;52.714;5.074;2023-08-30T00:06:04;100913.38;;;12.49;100.00
77311;BME280;66371;52.714;5.074;2023-08-30T00:08:31;100905.16;;;12.43;100.00
77311;BME280;66371;52.714;5.074;2023-08-30T00:10:56;100906.81;;;12.43;100.00
77311;BME280;66371;52.714;5.074;2023-08-30T00:13:26;100899.13;;;12.40;100.00
77311;BME280;66371;52.714;5.074;2023-08-30T00:15:52;100899.63;;;12.36;100.00
77311;BME280;66371;52.714;5.074;2023-08-30T00:18:17;100888.78;;;12.29;100.00
77311;BME280;66371;52.714;5.074;2023-08-30T00:20:45;100888.28;;;12.26;100.00
77311;BME280;66371;52.714;5.074;2023-08-30T00:23:11;100887.44;;;12.25;100.00
77311;BME280;66371;52.714;5.074;2023-08-30T00:25:36;100881.25;;;12.25;100.00
77311;BME280;66371;52.714;5.074;2023-08-30T00:28:02;100883.06;;;12.24;100.00
77311;BME280;66371;52.714;5.074;2023-08-30T00:30:27;100882.75;;;12.19;100.00
77311;BME280;66371;52.714;5.074;2023-08-30T00:32:53;100877.56;;;12.18;100.00
77311;BME280;66371;52.714;5.074;2023-08-30T00:35:18;100880.06;;;12.19;100.00
77311;BME280;66371;52.714;5.074;2023-08-30T00:37:43;100881.38;;;12.23;100.00
77311;BME280;66371;52.714;5.074;2023-08-30T00:40:09;100881.56;;;12.30;100.00
77311;BME280;66371;52.714;5.074;2023-08-30T00:42:35;100884.56;;;12.35;100.00
77311;BME280;66371;52.714;5.074;2023-08-30T00:45:00;100881.88;;;12.43;100.00
77311;BME280;66371;52.714;5.074;2023-08-30T00:47:25;100877.66;;;12.57;100.00
77311;BME280;66371;52.714;5.074;2023-08-30T00:49:51;100877.63;;;12.65;100.00
77311;BME280;66371;52.714;5.074;2023-08-30T00:52:16;100874.56;;;12.76;100.00
77311;BME280;66371;52.714;5.074;2023-08-30T00:54:42;100871.00;;;12.83;100.00
77311;BME280;66371;52.714;5.074;2023-08-30T00:57:08;100865.28;;;12.86;100.00
77311;BME280;66371;52.714;5.074;2023-08-30T00:59:33;100869.16;;;12.92;100.00
77311;BME280;66371;52.714;5.074;2023-08-30T01:01:59;100850.88;;;12.87;100.00
77311;BME280;66371;52.714;5.074;2023-08-30T01:04:27;100849.84;;;12.96;100.00
77311;BME280;66371;52.714;5.074;2023-08-30T01:06:52;100850.19;;;12.93;100.00
77311;BME280;66371;52.714;5.074;2023-08-30T01:09:18;100860.41;;;12.98;100.00
77311;BME280;66371;52.714;5.074;2023-08-30T01:14:37;100838.06;;;12.97;100.00
77311;BME280;66371;52.714;5.074;2023-08-30T01:17:05;100842.09;;;13.01;100.00
77311;BME280;66371;52.714;5.074;2023-08-30T01:19:47;100830.03;;;12.97;100.00
77311;BME280;66371;52.714;5.074;2023-08-30T01:22:40;100824.91;;;13.18;100.00
77311;BME280;66371;52.714;5.074;2023-08-30T01:27:40;100818.56;;;13.42;100.00
77311;BME280;66371;52.714;5.074;2023-08-30T01:30:07;100827.97;;;13.60;100.00
77311;BME280;66371;52.714;5.074;2023-08-30T01:32:34;100816.97;;;13.70;100.00
77311;BME280;66371;52.714;5.074;2023-08-30T01:35:03;100819.97;;;13.75;100.00
77311;BME280;66371;52.714;5.074;2023-08-30T01:37:30;100819.41;;;13.79;100.00
77311;BME280;66371;52.714;5.074;2023-08-30T01:39:58;100808.47;;;13.81;100.00
77311;BME280;66371;52.714;5.074;2023-08-30T01:42:27;100816.47;;;13.89;100.00
77311;BME280;66371;52.714;5.074;2023-08-30T01:44:54;100817.97;;;13.91;100.00
77311;BME280;66371;52.714;5.074;2023-08-30T01:47:23;100823.81;;;13.95;100.00
77311;BME280;66371;52.714;5.074;2023-08-30T01:49:49;100814.53;;;13.97;100.00
77311;BME280;66371;52.714;5.074;2023-08-30T01:52:16;100810.31;;;14.03;100.00
77311;BME280;66371;52.714;5.074;2023-08-30T01:54:43;100804.25;;;14.01;100.00
77311;BME280;66371;52.714;5.074;2023-08-30T01:57:09;100811.31;;;14.02;100.00
77311;BME280;66371;52.714;5.074;2023-08-30T01:59:35;100814.16;;;14.00;100.00
77311;BME280;66371;52.714;5.074;2023-08-30T02:02:00;100798.59;;;13.96;100.00
77311;BME280;66371;52.714;5.074;2023-08-30T02:04:26;100802.13;;;13.96;100.00
77311;BME280;66371;52.714;5.074;2023-08-30T02:06:55;100801.22;;;14.04;100.00
77311;BME280;66371;52.714;5.074;2023-08-30T02:09:54;100792.66;;;14.00;100.00
77311;BME280;66371;52.714;5.074;2023-08-30T02:12:23;100790.91;;;13.93;100.00
77311;BME280;66371;52.714;5.074;2023-08-30T02:14:53;100784.34;;;13.95;100.00
77311;BME280;66371;52.714;5.074;2023-08-30T02:17:20;100783.56;;;13.87;100.00
77311;BME280;66371;52.714;5.074;2023-08-30T02:19:47;100792.47;;;13.87;100.00
77311;BME280;66371;52.714;5.074;2023-08-30T02:22:12;100782.03;;;13.92;100.00
77311;BME280;66371;52.714;5.074;2023-08-30T02:24:38;100777.19;;;13.88;100.00
77311;BME280;66371;52.714;5.074;2023-08-30T02:27:04;100779.78;;;13.81;100.00
77311;BME280;66371;52.714;5.074;2023-08-30T02:29:30;100774.47;;;13.73;100.00
77311;BME280;66371;52.714;5.074;2023-08-30T02:31:55;100777.50;;;13.70;100.00
77311;BME280;66371;52.714;5.074;2023-08-30T02:34:21;100778.72;;;13.68;100.00
77311;BME280;66371;52.714;5.074;2023-08-30T02:36:46;100779.34;;;13.70;100.00
77311;BME280;66371;52.714;5.074;2023-08-30T02:39:13;100768.53;;;13.78;100.00
77311;BME280;66371;52.714;5.074;2023-08-30T02:41:39;100769.75;;;13.75;100.00
77311;BME280;66371;52.714;5.074;2023-08-30T02:44:07;100768.72;;;13.76;100.00
77311;BME280;66371;52.714;5.074;2023-08-30T02:46:32;100759.81;;;13.76;100.00
77311;BME280;66371;52.714;5.074;2023-08-30T02:48:58;100764.66;;;13.80;100.00
77311;BME280;66371;52.714;5.074;2023-08-30T02:51:23;100757.34;;;13.89;100.00
77311;BME280;66371;52.714;5.074;2023-08-30T02:53:48;100757.09;;;13.98;100.00
77311;BME280;66371;52.714;5.074;2023-08-30T02:56:14;100745.13;;;14.01;100.00
77311;BME280;66371;52.714;5.074;2023-08-30T02:58:39;100736.69;;;14.04;100.00
77311;BME280;66371;52.714;5.074;2023-08-30T03:01:05;100738.91;;;14.00;100.00
77311;BME280;66371;52.714;5.074;2023-08-30T03:03:30;100739.00;;;14.07;100.00
77311;BME280;66371;52.714;5.074;2023-08-30T03:05:55;100729.00;;;14.01;100.00
77311;BME280;66371;52.714;5.074;2023-08-30T03:08:21;100725.09;;;14.03;100.00
77311;BME280;66371;52.714;5.074;2023-08-30T03:10:46;100730.41;;;14.11;100.00
77311;BME280;66371;52.714;5.074;2023-08-30T03:13:11;100729.28;;;14.06;100.00
77311;BME280;66371;52.714;5.074;2023-08-30T03:15:37;100716.66;;;14.06;100.00
77311;BME280;66371;52.714;5.074;2023-08-30T03:18:02;100725.00;;;14.11;100.00
77311;BME280;66371;52.714;5.074;2023-08-30T03:20:28;100712.78;;;14.09;100.00
77311;BME280;66371;52.714;5.074;2023-08-30T03:22:56;100710.34;;;14.14;100.00
77311;BME280;66371;52.714;5.074;2023-08-30T03:25:22;100708.88;;;14.11;100.00
77311;BME280;66371;52.714;5.074;2023-08-30T03:27:47;100701.47;;;14.13;100.00
77311;BME280;66371;52.714;5.074;2023-08-30T03:30:13;100706.28;;;14.18;100.00
77311;BME280;66371;52.714;5.074;2023-08-30T03:32:38;100706.91;;;14.20;100.00
77311;BME280;66371;52.714;5.074;2023-08-30T03:35:05;100690.97;;;14.18;100.00
77311;BME280;66371;52.714;5.074;2023-08-30T03:37:31;100692.78;;;14.26;100.00
77311;BME280;66371;52.714;5.074;2023-08-30T03:39:56;100677.53;;;14.18;100.00
77311;BME280;66371;52.714;5.074;2023-08-30T03:42:21;100695.28;;;14.28;100.00
77311;BME280;66371;52.714;5.074;2023-08-30T03:44:47;100688.41;;;14.25;100.00
77311;BME280;66371;52.714;5.074;2023-08-30T03:47:12;100679.53;;;14.25;100.00
77311;BME280;66371;52.714;5.074;2023-08-30T03:49:37;100666.16;;;14.17;100.00
77311;BME280;66371;52.714;5.074;2023-08-30T03:52:03;100679.03;;;14.36;100.00
77311;BME280;66371;52.714;5.074;2023-08-30T03:54:29;100675.97;;;14.39;100.00
77311;BME280;66371;52.714;5.074;2023-08-30T03:56:54;100664.41;;;14.38;100.00
77311;BME280;66371;52.714;5.074;2023-08-30T03:59:19;100675.88;;;14.47;100.00
77311;BME280;66371;52.714;5.074;2023-08-30T04:01:45;100675.03;;;14.46;100.00
77311;BME280;66371;52.714;5.074;2023-08-30T04:04:10;100672.13;;;14.48;100.00
77311;BME280;66371;52.714;5.074;2023-08-30T04:06:36;100667.03;;;14.53;100.00
77311;BME280;66371;52.714;5.074;2023-08-30T04:09:01;100662.03;;;14.50;100.00
77311;BME280;66371;52.714;5.074;2023-08-30T04:11:27;100664.81;;;14.56;100.00
77311;BME280;66371;52.714;5.074;2023-08-30T04:13:52;100658.97;;;14.53;100.00
77311;BME280;66371;52.714;5.074;2023-08-30T04:16:18;100653.31;;;14.48;100.00
77311;BME280;66371;52.714;5.074;2023-08-30T04:18:43;100655.00;;;14.49;100.00
77311;BME280;66371;52.714;5.074;2023-08-30T04:21:09;100665.00;;;14.55;100.00
77311;BME280;66371;52.714;5.074;2023-08-30T04:23:34;100657.13;;;14.53;100.00
77311;BME280;66371;52.714;5.074;2023-08-30T04:26:00;100660.00;;;14.52;100.00
77311;BME280;66371;52.714;5.074;2023-08-30T04:28:25;100644.66;;;14.52;100.00
77311;BME280;66371;52.714;5.074;2023-08-30T04:30:55;100657.31;;;14.52;100.00
77311;BME280;66371;52.714;5.074;2023-08-30T04:33:21;100662.22;;;14.48;100.00
77311;BME280;66371;52.714;5.074;2023-08-30T04:35:51;100643.78;;;14.45;100.00
77311;BME280;66371;52.714;5.074;2023-08-30T04:38:16;100648.19;;;14.53;100.00
77311;BME280;66371;52.714;5.074;2023-08-30T04:40:41;100641.34;;;14.50;100.00
77311;BME280;66371;52.714;5.074;2023-08-30T04:43:07;100644.06;;;14.50;100.00
77311;BME280;66371;52.714;5.074;2023-08-30T04:45:34;100641.09;;;14.45;100.00
77311;BME280;66371;52.714;5.074;2023-08-30T04:48:00;100643.78;;;14.45;100.00
77311;BME280;66371;52.714;5.074;2023-08-30T04:50:25;100644.34;;;14.41;100.00
77311;BME280;66371;52.714;5.074;2023-08-30T04:52:51;100643.06;;;14.37;100.00
77311;BME280;66371;52.714;5.074;2023-08-30T04:55:17;100635.38;;;14.34;100.00
77311;BME280;66371;52.714;5.074;2023-08-30T04:57:42;100644.91;;;14.36;100.00
77311;BME280;66371;52.714;5.074;2023-08-30T05:00:11;100638.25;;;14.32;100.00
77311;BME280;66371;52.714;5.074;2023-08-30T05:02:37;100647.59;;;14.36;100.00
77311;BME280;66371;52.714;5.074;2023-08-30T05:05:02;100628.50;;;14.31;100.00
77311;BME280;66371;52.714;5.074;2023-08-30T05:07:28;100639.34;;;14.38;100.00
77311;BME280;66371;52.714;5.074;2023-08-30T05:09:53;100637.69;;;14.37;100.00
77311;BME280;66371;52.714;5.074;2023-08-30T05:12:19;100636.38;;;14.33;100.00
77311;BME280;66371;52.714;5.074;2023-08-30T05:14:44;100636.31;;;14.26;100.00
77311;BME280;66371;52.714;5.074;2023-08-30T05:17:10;100622.75;;;14.20;100.00
77311;BME280;66371;52.714;5.074;2023-08-30T05:19:35;100631.13;;;14.25;100.00
77311;BME280;66371;52.714;5.074;2023-08-30T05:22:00;100627.41;;;14.26;100.00
77311;BME280;66371;52.714;5.074;2023-08-30T05:24:26;100619.34;;;14.26;100.00
77311;BME280;66371;52.714;5.074;2023-08-30T05:26:52;100622.47;;;14.14;100.00
77311;BME280;66371;52.714;5.074;2023-08-30T05:29:17;100623.25;;;14.08;100.00
77311;BME280;66371;52.714;5.074;2023-08-30T05:31:43;100618.06;;;14.07;100.00
77311;BME280;66371;52.714;5.074;2023-08-30T05:34:09;100624.28;;;14.07;100.00
77311;BME280;66371;52.714;5.074;2023-08-30T05:36:35;100620.16;;;14.11;100.00
77311;BME280;66371;52.714;5.074;2023-08-30T05:39:01;100615.16;;;14.08;100.00
77311;BME280;66371;52.714;5.074;2023-08-30T05:41:26;100623.72;;;14.12;100.00
77311;BME280;66371;52.714;5.074;2023-08-30T05:43:51;100617.38;;;14.20;100.00
77311;BME280;66371;52.714;5.074;2023-08-30T05:46:17;100609.44;;;14.26;100.00
77311;BME280;66371;52.714;5.074;2023-08-30T05:48:42;100607.19;;;14.30;100.00
77311;BME280;66371;52.714;5.074;2023-08-30T05:51:08;100616.78;;;14.39;100.00
77311;BME280;66371;52.714;5.074;2023-08-30T05:53:33;100605.28;;;14.45;100.00
77311;BME280;66371;52.714;5.074;2023-08-30T05:55:59;100615.44;;;14.64;100.00
77311;BME280;66371;52.714;5.074;2023-08-30T05:58:24;100613.13;;;14.82;100.00
77311;BME280;66371;52.714;5.074;2023-08-30T06:00:50;100599.97;;;14.93;100.00
77311;BME280;66371;52.714;5.074;2023-08-30T06:03:15;100609.41;;;15.04;100.00
77311;BME280;66371;52.714;5.074;2023-08-30T06:05:41;100603.94;;;14.97;100.00
77311;BME280;66371;52.714;5.074;2023-08-30T06:08:08;100615.88;;;14.88;100.00
77311;BME280;66371;52.714;5.074;2023-08-30T06:10:33;100605.44;;;14.79;100.00
77311;BME280;66371;52.714;5.074;2023-08-30T06:12:59;100601.41;;;14.68;100.00
77311;BME280;66371;52.714;5.074;2023-08-30T06:15:24;100600.31;;;14.63;100.00
77311;BME280;66371;52.714;5.074;2023-08-30T06:17:50;100591.06;;;14.51;100.00
77311;BME280;66371;52.714;5.074;2023-08-30T06:20:15;100603.75;;;14.57;100.00
77311;BME280;66371;52.714;5.074;2023-08-30T06:22:41;100600.44;;;14.55;100.00
77311;BME280;66371;52.714;5.074;2023-08-30T06:25:08;100589.97;;;14.45;100.00
77311;BME280;66371;52.714;5.074;2023-08-30T06:27:34;100600.63;;;14.53;100.00
77311;BME280;66371;52.714;5.074;2023-08-30T06:29:59;100601.81;;;14.51;100.00
77311;BME280;66371;52.714;5.074;2023-08-30T06:32:24;100602.41;;;14.46;100.00
77311;BME280;66371;52.714;5.074;2023-08-30T06:34:50;100592.22;;;14.42;100.00
77311;BME280;66371;52.714;5.074;2023-08-30T06:37:15;100586.84;;;14.42;100.00
77311;BME280;66371;52.714;5.074;2023-08-30T06:39:42;100593.13;;;14.49;100.00
77311;BME280;66371;52.714;5.074;2023-08-30T06:42:07;100590.25;;;14.50;100.00
77311;BME280;66371;52.714;5.074;2023-08-30T06:44:33;100593.75;;;14.51;100.00
77311;BME280;66371;52.714;5.074;2023-08-30T06:46:58;100587.28;;;14.45;100.00
77311;BME280;66371;52.714;5.074;2023-08-30T06:49:24;100591.22;;;14.43;100.00
77311;BME280;66371;52.714;5.074;2023-08-30T06:51:50;100583.53;;;14.40;100.00
77311;BME280;66371;52.714;5.074;2023-08-30T06:54:15;100584.09;;;14.35;100.00
77311;BME280;66371;52.714;5.074;2023-08-30T06:56:41;100583.25;;;14.35;100.00
77311;BME280;66371;52.714;5.074;2023-08-30T06:59:06;100582.16;;;14.14;100.00
77311;BME280;66371;52.714;5.074;2023-08-30T07:01:31;100587.25;;;14.09;100.00
77311;BME280;66371;52.714;5.074;2023-08-30T07:03:57;100590.31;;;14.06;100.00
77311;BME280;66371;52.714;5.074;2023-08-30T07:06:22;100582.81;;;14.02;100.00
77311;BME280;66371;52.714;5.074;2023-08-30T07:08:48;100577.88;;;13.84;100.00
77311;BME280;66371;52.714;5.074;2023-08-30T07:11:13;100596.41;;;13.79;100.00
77311;BME280;66371;52.714;5.074;2023-08-30T07:13:39;100603.09;;;13.83;100.00
77311;BME280;66371;52.714;5.074;2023-08-30T07:16:04;100604.25;;;13.81;100.00
77311;BME280;66371;52.714;5.074;2023-08-30T07:18:29;100609.16;;;13.77;100.00
77311;BME280;66371;52.714;5.074;2023-08-30T07:20:55;100605.00;;;13.75;100.00
77311;BME280;66371;52.714;5.074;2023-08-30T07:23:20;100612.41;;;13.73;100.00
77311;BME280;66371;52.714;5.074;2023-08-30T07:25:46;100616.59;;;13.75;100.00
77311;BME280;66371;52.714;5.074;2023-08-30T07:28:11;100612.88;;;13.76;100.00
77311;BME280;66371;52.714;5.074;2023-08-30T07:30:36;100611.84;;;13.77;100.00
77311;BME280;66371;52.714;5.074;2023-08-30T07:33:03;100614.53;;;13.77;100.00
77311;BME280;66371;52.714;5.074;2023-08-30T07:35:29;100603.91;;;13.69;100.00
77311;BME280;66371;52.714;5.074;2023-08-30T07:37:55;100619.53;;;13.80;100.00
77311;BME280;66371;52.714;5.074;2023-08-30T07:40:20;100618.38;;;13.83;100.00
77311;BME280;66371;52.714;5.074;2023-08-30T07:42:49;100606.50;;;13.92;100.00
77311;BME280;66371;52.714;5.074;2023-08-30T07:45:15;100607.88;;;14.02;100.00
77311;BME280;66371;52.714;5.074;2023-08-30T07:47:40;100611.22;;;14.04;100.00
77311;BME280;66371;52.714;5.074;2023-08-30T07:50:06;100610.75;;;14.01;100.00
77311;BME280;66371;52.714;5.074;2023-08-30T07:52:33;100607.88;;;14.02;100.00
77311;BME280;66371;52.714;5.074;2023-08-30T07:54:58;100601.59;;;13.95;100.00
77311;BME280;66371;52.714;5.074;2023-08-30T07:57:23;100615.66;;;13.97;100.00
77311;BME280;66371;52.714;5.074;2023-08-30T07:59:49;100607.97;;;13.94;100.00
77311;BME280;66371;52.714;5.074;2023-08-30T08:02:14;100616.69;;;13.96;100.00
77311;BME280;66371;52.714;5.074;2023-08-30T08:04:40;100603.63;;;13.93;100.00
77311;BME280;66371;52.714;5.074;2023-08-30T08:07:05;100603.25;;;13.96;100.00
77311;BME280;66371;52.714;5.074;2023-08-30T08:09:31;100589.53;;;13.91;100.00
77311;BME280;66371;52.714;5.074;2023-08-30T08:11:56;100606.13;;;13.95;100.00
77311;BME280;66371;52.714;5.074;2023-08-30T08:14:23;100594.09;;;13.91;100.00
77311;BME280;66371;52.714;5.074;2023-08-30T08:16:49;100614.00;;;13.96;100.00
77311;BME280;66371;52.714;5.074;2023-08-30T08:19:14;100609.91;;;14.00;100.00
77311;BME280;66371;52.714;5.074;2023-08-30T08:21:39;100614.28;;;14.01;100.00
77311;BME280;66371;52.714;5.074;2023-08-30T08:24:05;100607.31;;;14.07;100.00
77311;BME280;66371;52.714;5.074;2023-08-30T08:26:31;100602.09;;;14.05;100.00
77311;BME280;66371;52.714;5.074;2023-08-30T08:28:56;100592.63;;;14.09;100.00
77311;BME280;66371;52.714;5.074;2023-08-30T08:31:22;100589.84;;;14.18;100.00
77311;BME280;66371;52.714;5.074;2023-08-30T08:33:51;100578.72;;;14.21;100.00
77311;BME280;66371;52.714;5.074;2023-08-30T08:36:17;100570.47;;;14.37;100.00
77311;BME280;66371;52.714;5.074;2023-08-30T08:38:42;100574.22;;;14.42;100.00
77311;BME280;66371;52.714;5.074;2023-08-30T08:41:12;100595.75;;;14.42;100.00
77311;BME280;66371;52.714;5.074;2023-08-30T08:43:40;100595.16;;;14.47;100.00
77311;BME280;66371;52.714;5.074;2023-08-30T08:46:09;100584.41;;;14.26;100.00
77311;BME280;66371;52.714;5.074;2023-08-30T08:48:39;100589.47;;;14.35;100.00
77311;BME280;66371;52.714;5.074;2023-08-30T08:51:06;100582.06;;;14.23;100.00
77311;BME280;66371;52.714;5.074;2023-08-30T08:53:32;100595.16;;;14.26;100.00
77311;BME280;66371;52.714;5.074;2023-08-30T08:55:58;100579.47;;;14.14;100.00
77311;BME280;66371;52.714;5.074;2023-08-30T08:58:24;100588.56;;;14.13;100.00
77311;BME280;66371;52.714;5.074;2023-08-30T09:00:49;100569.94;;;13.97;100.00
77311;BME280;66371;52.714;5.074;2023-08-30T09:03:15;100576.69;;;14.08;100.00
77311;BME280;66371;52.714;5.074;2023-08-30T09:05:42;100575.56;;;14.17;100.00
77311;BME280;66371;52.714;5.074;2023-08-30T09:08:09;100575.56;;;14.32;100.00
77311;BME280;66371;52.714;5.074;2023-08-30T09:10:35;100587.44;;;14.23;100.00
77311;BME280;66371;52.714;5.074;2023-08-30T09:13:01;100584.84;;;14.29;100.00
77311;BME280;66371;52.714;5.074;2023-08-30T09:15:34;100587.34;;;14.31;100.00
77311;BME280;66371;52.714;5.074;2023-08-30T09:18:02;100579.53;;;14.36;100.00
77311;BME280;66371;52.714;5.074;2023-08-30T09:20:27;100579.91;;;14.33;100.00
77311;BME280;66371;52.714;5.074;2023-08-30T09:22:53;100574.19;;;14.21;100.00
77311;BME280;66371;52.714;5.074;2023-08-30T09:25:26;100571.78;;;14.26;100.00
77311;BME280;66371;52.714;5.074;2023-08-30T09:28:01;100581.41;;;14.21;100.00
77311;BME280;66371;52.714;5.074;2023-08-30T09:30:26;100580.06;;;14.25;100.00
77311;BME280;66371;52.714;5.074;2023-08-30T09:32:52;100574.28;;;14.28;100.00
77311;BME280;66371;52.714;5.074;2023-08-30T09:35:18;100580.44;;;14.43;100.00
77311;BME280;66371;52.714;5.074;2023-08-30T09:37:46;100582.75;;;14.46;100.00
77311;BME280;66371;52.714;5.074;2023-08-30T09:40:11;100572.56;;;14.41;100.00
77311;BME280;66371;52.714;5.074;2023-08-30T09:42:41;100572.50;;;14.35;100.00
77311;BME280;66371;52.714;5.074;2023-08-30T09:45:42;100582.88;;;14.38;100.00
77311;BME280;66371;52.714;5.074;2023-08-30T09:48:08;100569.63;;;14.22;100.00
77311;BME280;66371;52.714;5.074;2023-08-30T09:50:35;100569.91;;;14.27;100.00
77311;BME280;66371;52.714;5.074;2023-08-30T09:53:07;100566.84;;;14.30;100.00
77311;BME280;66371;52.714;5.074;2023-08-30T09:55:34;100560.69;;;14.36;100.00
77311;BME280;66371;52.714;5.074;2023-08-30T09:58:04;100552.06;;;14.40;100.00
77311;BME280;66371;52.714;5.074;2023-08-30T10:00:33;100553.03;;;14.54;100.00
77311;BME280;66371;52.714;5.074;2023-08-30T10:02:59;100555.34;;;14.78;100.00
77311;BME280;66371;52.714;5.074;2023-08-30T10:05:26;100551.31;;;14.95;100.00
77311;BME280;66371;52.714;5.074;2023-08-30T10:07:52;100556.94;;;15.00;100.00
77311;BME280;66371;52.714;5.074;2023-08-30T10:10:18;100542.50;;;15.07;100.00
77311;BME280;66371;52.714;5.074;2023-08-30T10:12:46;100544.72;;;15.25;100.00
77311;BME280;66371;52.714;5.074;2023-08-30T10:15:11;100542.81;;;15.46;100.00
77311;BME280;66371;52.714;5.074;2023-08-30T10:17:38;100532.06;;;15.53;100.00
77311;BME280;66371;52.714;5.074;2023-08-30T10:20:06;100540.94;;;15.47;100.00
77311;BME280;66371;52.714;5.074;2023-08-30T10:22:35;100536.88;;;15.64;100.00
77311;BME280;66371;52.714;5.074;2023-08-30T10:25:05;100528.28;;;15.88;100.00
77311;BME280;66371;52.714;5.074;2023-08-30T10:27:34;100526.88;;;16.05;100.00
77311;BME280;66371;52.714;5.074;2023-08-30T10:30:01;100529.38;;;16.07;100.00
77311;BME280;66371;52.714;5.074;2023-08-30T10:32:28;100527.56;;;16.27;100.00
77311;BME280;66371;52.714;5.074;2023-08-30T10:34:54;100525.22;;;16.04;100.00
77311;BME280;66371;52.714;5.074;2023-08-30T10:37:23;100530.84;;;16.16;100.00
77311;BME280;66371;52.714;5.074;2023-08-30T10:39:49;100531.25;;;16.13;100.00
77311;BME280;66371;52.714;5.074;2023-08-30T10:42:16;100528.53;;;16.06;100.00
77311;BME280;66371;52.714;5.074;2023-08-30T10:47:22;100536.22;;;16.09;100.00
77311;BME280;66371;52.714;5.074;2023-08-30T10:49:49;100552.22;;;16.17;100.00
77311;BME280;66371;52.714;5.074;2023-08-30T10:52:14;100544.38;;;16.22;100.00
77311;BME280;66371;52.714;5.074;2023-08-30T10:54:40;100546.06;;;16.36;100.00
77311;BME280;66371;52.714;5.074;2023-08-30T10:57:12;100552.13;;;16.45;100.00
77311;BME280;66371;52.714;5.074;2023-08-30T10:59:37;100546.16;;;16.62;100.00
77311;BME280;66371;52.714;5.074;2023-08-30T11:02:03;100549.25;;;16.85;100.00
77311;BME280;66371;52.714;5.074;2023-08-30T11:04:29;100544.25;;;16.82;100.00
77311;BME280;66371;52.714;5.074;2023-08-30T11:06:54;100539.31;;;16.99;100.00
77311;BME280;66371;52.714;5.074;2023-08-30T11:09:22;100541.75;;;17.20;100.00
77311;BME280;66371;52.714;5.074;2023-08-30T11:11:49;100539.06;;;17.20;100.00
77311;BME280;66371;52.714;5.074;2023-08-30T11:14:17;100535.06;;;17.35;100.00
77311;BME280;66371;52.714;5.074;2023-08-30T11:16:43;100525.75;;;17.44;100.00
77311;BME280;66371;52.714;5.074;2023-08-30T11:19:10;100541.72;;;17.52;100.00
77311;BME280;66371;52.714;5.074;2023-08-30T11:21:38;100533.22;;;17.49;100.00
77311;BME280;66371;52.714;5.074;2023-08-30T11:24:06;100525.91;;;17.49;100.00
77311;BME280;66371;52.714;5.074;2023-08-30T11:26:31;100534.59;;;17.65;100.00
77311;BME280;66371;52.714;5.074;2023-08-30T11:28:57;100540.41;;;17.75;100.00
77311;BME280;66371;52.714;5.074;2023-08-30T11:31:24;100537.06;;;17.73;100.00
77311;BME280;66371;52.714;5.074;2023-08-30T11:33:56;100545.75;;;17.88;100.00
77311;BME280;66371;52.714;5.074;2023-08-30T11:36:27;100526.91;;;17.68;100.00
77311;BME280;66371;52.714;5.074;2023-08-30T11:38:53;100533.72;;;17.84;100.00
77311;BME280;66371;52.714;5.074;2023-08-30T11:41:25;100536.72;;;17.63;100.00
77311;BME280;66371;52.714;5.074;2023-08-30T11:43:52;100538.78;;;17.61;100.00
77311;BME280;66371;52.714;5.074;2023-08-30T11:46:18;100536.72;;;17.63;100.00
77311;BME280;66371;52.714;5.074;2023-08-30T11:48:44;100545.03;;;17.55;100.00
77311;BME280;66371;52.714;5.074;2023-08-30T11:51:10;100543.63;;;17.13;100.00
77311;BME280;66371;52.714;5.074;2023-08-30T11:53:37;100555.50;;;16.99;100.00
77311;BME280;66371;52.714;5.074;2023-08-30T11:56:05;100543.63;;;17.19;100.00
77311;BME280;66371;52.714;5.074;2023-08-30T11:58:37;100569.16;;;17.49;100.00
77311;BME280;66371;52.714;5.074;2023-08-30T12:01:03;100563.69;;;17.82;100.00
77311;BME280;66371;52.714;5.074;2023-08-30T12:03:30;100552.44;;;17.79;100.00
77311;BME280;66371;52.714;5.074;2023-08-30T12:05:56;100549.84;;;17.39;100.00
77311;BME280;66371;52.714;5.074;2023-08-30T12:08:29;100556.28;;;17.45;100.00
77311;BME280;66371;52.714;5.074;2023-08-30T12:10:56;100551.06;;;17.37;100.00
77311;BME280;66371;52.714;5.074;2023-08-30T12:13:29;100557.34;;;17.24;100.00
77311;BME280;66371;52.714;5.074;2023-08-30T12:15:56;100556.94;;;17.27;100.00
77311;BME280;66371;52.714;5.074;2023-08-30T12:18:25;100563.75;;;17.56;100.00
77311;BME280;66371;52.714;5.074;2023-08-30T12:20:57;100555.66;;;17.49;100.00
77311;BME280;66371;52.714;5.074;2023-08-30T12:23:23;100561.69;;;17.58;100.00
77311;BME280;66371;52.714;5.074;2023-08-30T12:26:06;100557.06;;;17.72;100.00
77311;BME280;66371;52.714;5.074;2023-08-30T12:28:33;100555.44;;;17.58;100.00
77311;BME280;66371;52.714;5.074;2023-08-30T12:31:00;100548.38;;;17.57;100.00
77311;BME280;66371;52.714;5.074;2023-08-30T12:33:25;100543.38;;;17.40;100.00
77311;BME280;66371;52.714;5.074;2023-08-30T12:35:52;100565.75;;;17.74;100.00
77311;BME280;66371;52.714;5.074;2023-08-30T12:38:17;100563.53;;;17.58;100.00
77311;BME280;66371;52.714;5.074;2023-08-30T12:40:44;100553.59;;;17.32;100.00
77311;BME280;66371;52.714;5.074;2023-08-30T12:43:10;100562.09;;;17.35;100.00
77311;BME280;66371;52.714;5.074;2023-08-30T12:45:37;100571.69;;;17.44;100.00